Time;durP1;ratioP1;P1;durP2;ratioP2;P2;SDS_P1;SDS_P2;PMS_P1;PMS_P2;Temp;Humidity;BMP_temperature;BMP_pressure;BME280_temperature;BME280_humidity;BME280_pressure;Samples;Min_cycle;Max_cycle;Signal;HPM_P1;HPM_P2
2023/04/18 00:01:02;;;;;;;12.50;10.57;;;4.80;99.90;;;;;;5051200;28;20501;-57
2023/04/18 00:03:29;;;;;;;12.50;11.00;;;4.90;99.90;;;;;;5050553;28;20512;-57
2023/04/18 00:05:56;;;;;;;15.50;10.70;;;4.90;99.90;;;;;;5051412;28;20490;-57
2023/04/18 00:08:23;;;;;;;12.30;10.90;;;4.80;99.90;;;;;;5056417;28;20469;-57
2023/04/18 00:10:49;;;;;;;11.50;10.30;;;4.80;99.90;;;;;;5051749;28;20950;-57
2023/04/18 00:13:18;;;;;;;16.50;11.03;;;4.80;99.90;;;;;;5050207;28;20939;-56
2023/04/18 00:15:45;;;;;;;11.33;10.20;;;4.80;99.90;;;;;;5048629;28;20464;-56
2023/04/18 00:18:15;;;;;;;11.43;10.23;;;4.70;98.60;;;;;;5051029;28;20480;-57
2023/04/18 00:20:42;;;;;;;13.40;11.67;;;4.80;99.90;;;;;;5052053;28;20455;-57
2023/04/18 00:23:12;;;;;;;11.37;10.17;;;4.80;90.60;;;;;;5049768;28;20970;-57
2023/04/18 00:25:39;;;;;;;11.33;10.17;;;4.80;88.10;;;;;;5048373;28;20461;-57
2023/04/18 00:28:06;;;;;;;11.53;10.40;;;4.80;84.30;;;;;;5044750;28;21007;-57
2023/04/18 00:30:34;;;;;;;12.80;11.03;;;4.80;87.70;;;;;;5044255;28;20499;-56
2023/04/18 00:33:01;;;;;;;12.77;11.57;;;4.70;85.90;;;;;;5050788;28;20546;-56
2023/04/18 00:35:27;;;;;;;21.30;13.37;;;4.70;84.30;;;;;;5045983;28;20533;-57
2023/04/18 00:37:54;;;;;;;12.90;11.60;;;4.70;79.70;;;;;;5048401;28;20524;-56
2023/04/18 00:40:20;;;;;;;13.60;12.20;;;4.70;82.00;;;;;;5047315;28;20468;-58
2023/04/18 00:42:47;;;;;;;14.93;13.03;;;4.70;73.80;;;;;;5059816;28;20500;-57
2023/04/18 00:45:13;;;;;;;14.37;12.53;;;4.70;73.10;;;;;;5060623;28;20943;-57
2023/04/18 00:47:41;;;;;;;17.03;12.00;;;4.70;21.00;;;;;;5048802;28;20887;-57
2023/04/18 00:50:10;;;;;;;15.93;12.83;;;4.70;20.20;;;;;;5048555;28;20468;-57
2023/04/18 00:52:37;;;;;;;14.17;12.40;;;4.70;20.70;;;;;;5050806;28;20464;-56
2023/04/18 00:55:05;;;;;;;13.13;11.50;;;4.70;20.90;;;;;;5049533;28;20463;-57
2023/04/18 00:57:32;;;;;;;15.30;12.73;;;4.60;20.70;;;;;;5048495;28;20526;-57
2023/04/18 01:00:00;;;;;;;14.00;12.40;;;4.70;21.10;;;;;;5049096;28;20982;-57
2023/04/18 01:02:28;;;;;;;13.63;12.27;;;4.60;21.50;;;;;;5058320;28;20456;-57
2023/04/18 01:04:57;;;;;;;13.17;11.87;;;4.60;22.00;;;;;;5066302;28;20489;-56
2023/04/18 01:07:24;;;;;;;12.83;11.63;;;4.60;22.30;;;;;;5062743;28;20552;-56
2023/04/18 01:09:50;;;;;;;13.03;11.63;;;4.60;22.30;;;;;;5065893;28;20454;-56
2023/04/18 01:12:17;;;;;;;15.80;12.20;;;4.50;22.60;;;;;;5065929;28;20461;-57
2023/04/18 01:14:44;;;;;;;12.53;11.23;;;4.50;23.90;;;;;;5061804;28;20468;-58
2023/04/18 01:17:12;;;;;;;13.80;12.30;;;4.50;23.50;;;;;;5051961;28;20598;-58
2023/04/18 01:19:39;;;;;;;13.67;10.80;;;4.50;24.60;;;;;;5047236;28;20466;-57
2023/04/18 01:22:07;;;;;;;13.90;10.93;;;4.50;25.20;;;;;;5052447;28;20468;-56
2023/04/18 01:24:35;;;;;;;11.83;10.77;;;4.50;27.80;;;;;;5052930;28;20492;-56
2023/04/18 01:27:02;;;;;;;11.67;10.47;;;4.60;27.60;;;;;;5057283;28;20514;-56
2023/04/18 01:29:28;;;;;;;12.00;10.80;;;4.60;27.50;;;;;;5051649;28;20459;-57
2023/04/18 01:31:55;;;;;;;11.60;10.40;;;4.60;28.30;;;;;;5059571;28;20970;-57
2023/04/18 01:34:22;;;;;;;10.90;9.90;;;4.60;27.30;;;;;;5063726;28;20471;-56
2023/04/18 01:36:48;;;;;;;14.60;10.90;;;4.50;26.50;;;;;;5064105;28;20616;-57
2023/04/18 01:39:17;;;;;;;13.60;11.93;;;4.40;26.90;;;;;;5048160;28;20499;-57
2023/04/18 01:41:45;;;;;;;11.97;10.50;;;4.50;28.30;;;;;;5050447;28;20517;-56
2023/04/18 01:44:11;;;;;;;13.17;10.73;;;4.50;29.70;;;;;;5054700;28;20507;-55
2023/04/18 01:46:38;;;;;;;16.53;11.20;;;4.50;29.20;;;;;;5053170;28;20481;-57
2023/04/18 01:49:05;;;;;;;12.20;10.90;;;4.50;29.50;;;;;;5052432;28;20532;-57
2023/04/18 01:51:32;;;;;;;15.57;11.00;;;4.50;28.90;;;;;;5065029;28;20471;-57
2023/04/18 01:53:59;;;;;;;11.07;10.00;;;4.50;28.50;;;;;;5049744;28;20475;-57
2023/04/18 01:56:25;;;;;;;10.83;9.67;;;4.40;27.10;;;;;;5048339;28;20552;-51
2023/04/18 01:58:53;;;;;;;12.53;11.23;;;4.50;29.00;;;;;;5046265;28;20450;-50
2023/04/18 02:01:20;;;;;;;11.30;10.10;;;4.50;29.10;;;;;;5052678;28;20510;-50
2023/04/18 02:03:46;;;;;;;13.50;10.63;;;4.50;29.60;;;;;;5052907;28;20505;-50
2023/04/18 02:06:13;;;;;;;12.30;11.00;;;4.60;29.10;;;;;;5048317;28;20496;-50
2023/04/18 02:08:39;;;;;;;12.90;11.50;;;4.60;28.30;;;;;;5052340;28;21040;-50
2023/04/18 02:11:06;;;;;;;11.30;10.20;;;4.60;28.10;;;;;;5052283;28;20465;-50
2023/04/18 02:13:33;;;;;;;12.23;10.83;;;4.60;27.70;;;;;;5053598;28;20509;-50
2023/04/18 02:16:00;;;;;;;11.20;10.10;;;4.60;26.90;;;;;;5044451;28;20457;-50
2023/04/18 02:18:27;;;;;;;12.40;10.47;;;4.60;26.70;;;;;;5068859;28;20485;-51
2023/04/18 02:20:54;;;;;;;12.37;11.17;;;4.50;25.90;;;;;;5069962;28;20487;-50
2023/04/18 02:23:20;;;;;;;10.80;9.80;;;4.50;25.30;;;;;;5077540;28;20514;-50
2023/04/18 02:25:47;;;;;;;15.40;11.30;;;4.50;24.90;;;;;;5072152;28;20461;-50
2023/04/18 02:28:13;;;;;;;11.90;10.70;;;4.50;24.80;;;;;;5066293;28;20462;-52
2023/04/18 02:30:40;;;;;;;11.20;10.20;;;4.50;24.60;;;;;;5051384;28;20461;-50
2023/04/18 02:33:08;;;;;;;11.63;10.43;;;4.50;24.30;;;;;;5052375;28;20465;-50
2023/04/18 02:35:36;;;;;;;13.10;10.50;;;4.50;22.50;;;;;;5045179;28;20496;-50
2023/04/18 02:38:03;;;;;;;12.67;10.63;;;4.50;23.90;;;;;;5049826;28;20495;-51
2023/04/18 02:40:29;;;;;;;11.13;10.13;;;4.50;22.50;;;;;;5051279;28;20468;-50
2023/04/18 02:42:57;;;;;;;11.57;10.37;;;4.50;21.70;;;;;;5053324;28;20803;-50
2023/04/18 02:45:23;;;;;;;11.70;10.63;;;4.50;20.90;;;;;;5046773;28;20464;-50
2023/04/18 02:47:50;;;;;;;11.83;10.03;;;4.50;20.90;;;;;;5045697;28;21018;-50
2023/04/18 02:50:18;;;;;;;20.40;10.97;;;4.40;20.40;;;;;;5040903;28;21052;-50
2023/04/18 02:52:44;;;;;;;11.60;9.93;;;4.30;20.00;;;;;;5051878;28;20453;-49
2023/04/18 02:55:11;;;;;;;11.70;10.60;;;4.30;71.70;;;;;;5052201;28;20970;-49
2023/04/18 02:57:38;;;;;;;12.07;10.80;;;4.30;72.30;;;;;;5052465;28;21002;-50
2023/04/18 03:00:06;;;;;;;12.17;10.97;;;4.20;20.00;;;;;;5059199;28;20961;-50
2023/04/18 03:02:33;;;;;;;10.80;9.80;;;4.20;20.10;;;;;;5046886;28;20542;-50
2023/04/18 03:04:59;;;;;;;12.00;10.80;;;4.10;20.50;;;;;;5051980;28;20499;-50
2023/04/18 03:07:27;;;;;;;11.60;10.40;;;4.10;20.70;;;;;;5053964;28;20484;-49
2023/04/18 03:09:54;;;;;;;15.27;10.20;;;4.10;20.00;;;;;;5048657;28;20492;-49
2023/04/18 03:12:20;;;;;;;15.60;10.27;;;4.10;20.20;;;;;;5051369;28;20493;-50
2023/04/18 03:14:47;;;;;;;12.00;10.77;;;4.10;20.20;;;;;;5059090;28;20492;-50
2023/04/18 03:17:14;;;;;;;12.10;10.80;;;4.20;20.10;;;;;;5049103;28;20544;-50
2023/04/18 03:19:40;;;;;;;13.30;11.90;;;4.20;20.20;;;;;;5046597;28;20523;-50
2023/04/18 03:22:07;;;;;;;12.23;11.03;;;4.20;20.00;;;;;;5050459;28;20883;-51
2023/04/18 03:24:35;;;;;;;14.60;11.43;;;4.30;71.50;;;;;;5051348;28;20515;-50
2023/04/18 03:27:01;;;;;;;13.03;11.10;;;4.30;73.90;;;;;;5051016;28;20547;-50
2023/04/18 03:29:28;;;;;;;11.90;10.73;;;4.40;78.70;;;;;;5059144;28;20459;-50
2023/04/18 03:31:54;;;;;;;12.27;10.30;;;4.40;82.50;;;;;;5059997;28;20542;-50
2023/04/18 03:34:21;;;;;;;11.63;10.50;;;4.50;86.70;;;;;;5052082;28;20825;-49
2023/04/18 03:36:47;;;;;;;12.93;11.00;;;4.50;91.20;;;;;;5052543;28;20601;-50
2023/04/18 03:39:14;;;;;;;13.27;11.07;;;4.50;97.60;;;;;;5051512;28;20994;-50
2023/04/18 03:41:42;;;;;;;16.93;12.40;;;4.50;99.90;;;;;;5051838;28;20449;-50
2023/04/18 03:44:09;;;;;;;11.80;10.57;;;4.50;99.90;;;;;;5044197;28;20547;-50
2023/04/18 03:46:35;;;;;;;13.60;12.20;;;4.50;99.90;;;;;;5060939;28;20456;-50
2023/04/18 03:49:02;;;;;;;12.53;11.20;;;4.50;99.90;;;;;;5062404;28;20502;-50
2023/04/18 03:51:33;;;;;;;18.10;12.10;;;4.50;99.90;;;;;;5050701;28;20963;-50
2023/04/18 03:54:00;;;;;;;14.23;12.27;;;4.50;99.90;;;;;;5049533;28;20461;-50
2023/04/18 03:56:27;;;;;;;12.80;11.50;;;4.50;99.90;;;;;;5051601;28;20984;-50
2023/04/18 03:58:54;;;;;;;14.50;12.67;;;4.50;99.90;;;;;;5051086;28;20554;-49
2023/04/18 04:01:21;;;;;;;16.53;12.63;;;4.50;99.90;;;;;;5050967;28;20522;-49
2023/04/18 04:03:48;;;;;;;13.17;11.70;;;4.50;99.90;;;;;;5050503;28;20500;-50
2023/04/18 04:06:14;;;;;;;13.37;12.07;;;4.50;99.90;;;;;;5050214;28;20477;-50
2023/04/18 04:08:41;;;;;;;14.63;11.90;;;4.50;99.90;;;;;;5050023;28;20531;-50
2023/04/18 04:11:07;;;;;;;13.53;11.60;;;4.60;99.90;;;;;;5049491;28;20475;-51
2023/04/18 04:13:34;;;;;;;16.07;11.30;;;4.60;99.90;;;;;;5050080;28;20463;-50
2023/04/18 04:16:03;;;;;;;14.77;12.40;;;4.60;99.90;;;;;;5048861;28;20837;-50
2023/04/18 04:18:30;;;;;;;13.87;12.47;;;4.60;99.90;;;;;;5048478;28;20527;-51
2023/04/18 04:20:56;;;;;;;16.53;14.20;;;4.60;99.90;;;;;;5047700;28;20969;-50
2023/04/18 04:23:24;;;;;;;16.90;14.53;;;4.70;99.90;;;;;;5048666;28;20493;-49
2023/04/18 04:25:51;;;;;;;12.97;11.53;;;4.60;99.90;;;;;;5053722;28;20882;-49
2023/04/18 04:28:21;;;;;;;14.67;11.90;;;4.70;99.90;;;;;;5045104;28;20464;-55
2023/04/18 04:30:49;;;;;;;14.37;11.83;;;4.70;99.90;;;;;;5056432;28;20468;-51
2023/04/18 04:33:18;;;;;;;13.27;11.97;;;4.70;99.90;;;;;;5043229;28;20468;-49
2023/04/18 04:35:45;;;;;;;15.03;11.80;;;4.70;99.90;;;;;;5041680;28;20464;-50
2023/04/18 04:38:13;;;;;;;14.23;12.23;;;4.80;99.90;;;;;;5049190;28;20497;-49
2023/04/18 04:40:39;;;;;;;14.93;12.10;;;4.80;99.90;;;;;;5051751;28;20457;-50
2023/04/18 04:43:06;;;;;;;15.93;12.70;;;4.80;99.90;;;;;;5043834;28;20465;-49
2023/04/18 04:45:33;;;;;;;21.60;12.43;;;4.80;99.90;;;;;;5046534;28;20531;-49
2023/04/18 04:47:59;;;;;;;13.73;12.33;;;4.80;99.90;;;;;;5045868;28;20516;-49
2023/04/18 04:50:27;;;;;;;16.50;13.73;;;4.90;99.90;;;;;;5054187;28;20473;-51
2023/04/18 04:52:54;;;;;;;19.97;16.63;;;4.80;99.90;;;;;;5047078;28;20896;-51
2023/04/18 04:55:21;;;;;;;15.97;13.47;;;4.90;99.90;;;;;;5053039;28;20465;-50
2023/04/18 04:57:47;;;;;;;28.83;19.37;;;4.90;99.90;;;;;;5053100;28;20491;-50
2023/04/18 05:00:19;;;;;;;24.67;18.37;;;5.00;99.90;;;;;;5054112;28;20871;-50
2023/04/18 05:02:46;;;;;;;40.70;31.50;;;5.10;99.90;;;;;;5054027;28;20470;-50
2023/04/18 05:05:13;;;;;;;17.47;15.67;;;5.10;99.90;;;;;;5052603;28;20523;-50
2023/04/18 05:07:40;;;;;;;15.63;13.17;;;5.20;99.90;;;;;;5056061;28;20468;-50
2023/04/18 05:10:08;;;;;;;18.40;16.57;;;5.10;99.90;;;;;;5054708;28;20841;-52
2023/04/18 05:12:34;;;;;;;18.70;14.77;;;5.20;99.90;;;;;;5051982;28;20492;-50
2023/04/18 05:15:01;;;;;;;15.70;12.90;;;5.20;99.90;;;;;;5052611;28;20542;-50
2023/04/18 05:17:28;;;;;;;16.63;12.13;;;5.20;99.90;;;;;;5051886;28;20492;-50
2023/04/18 05:19:54;;;;;;;14.47;12.53;;;5.20;99.90;;;;;;5053901;28;20500;-51
2023/04/18 05:22:21;;;;;;;21.17;12.00;;;5.20;99.90;;;;;;5053735;28;20523;-50
2023/04/18 05:24:49;;;;;;;15.10;11.67;;;5.40;99.90;;;;;;5052336;28;20491;-50
2023/04/18 05:27:16;;;;;;;13.70;12.30;;;5.30;99.90;;;;;;5054143;28;20475;-50
2023/04/18 05:29:42;;;;;;;15.23;12.03;;;5.40;99.90;;;;;;5054584;28;20444;-51
2023/04/18 05:32:09;;;;;;;26.40;13.20;;;5.50;99.90;;;;;;5053767;28;20970;-50
2023/04/18 05:34:36;;;;;;;23.93;12.17;;;5.50;99.90;;;;;;5050600;28;20464;-52
2023/04/18 05:37:02;;;;;;;17.30;11.33;;;5.70;99.90;;;;;;5055618;28;20510;-50
2023/04/18 05:39:29;;;;;;;17.57;12.30;;;5.80;99.90;;;;;;5040792;28;21067;-50
2023/04/18 05:41:57;;;;;;;13.70;11.03;;;5.90;99.90;;;;;;5049009;28;20467;-50
2023/04/18 05:44:24;;;;;;;15.10;11.80;;;5.90;99.90;;;;;;5058773;28;20917;-51
2023/04/18 05:46:51;;;;;;;14.53;12.43;;;5.90;99.30;;;;;;5057821;28;20502;-50
2023/04/18 05:49:18;;;;;;;15.13;11.50;;;5.90;81.10;;;;;;5052945;28;20492;-49
2023/04/18 05:51:44;;;;;;;14.10;11.47;;;5.90;80.20;;;;;;5052028;28;20468;-50
2023/04/18 05:54:11;;;;;;;14.60;11.60;;;5.90;20.00;;;;;;5052756;28;20580;-52
2023/04/18 05:56:39;;;;;;;14.60;11.53;;;6.00;24.00;;;;;;5052472;28;20555;-49
2023/04/18 05:59:06;;;;;;;12.23;10.47;;;6.00;24.30;;;;;;5055933;28;20568;-50
2023/04/18 06:01:33;;;;;;;12.50;10.37;;;6.10;22.90;;;;;;5061278;28;20628;-51
2023/04/18 06:04:00;;;;;;;11.13;9.50;;;6.20;20.90;;;;;;5051273;28;20522;-50
2023/04/18 06:06:27;;;;;;;14.27;11.10;;;6.30;23.90;;;;;;5054290;28;20473;-50
2023/04/18 06:08:54;;;;;;;16.80;11.37;;;6.30;22.30;;;;;;5052238;28;20459;-50
2023/04/18 06:11:21;;;;;;;15.80;10.63;;;6.40;25.50;;;;;;5052306;28;20496;-50
2023/04/18 06:13:48;;;;;;;19.00;11.23;;;6.50;40.40;;;;;;5049457;28;20963;-50
2023/04/18 06:16:16;;;;;;;17.03;11.53;;;6.50;45.70;;;;;;5065431;28;20476;-50
2023/04/18 06:18:42;;;;;;;10.43;9.43;;;6.40;51.00;;;;;;5052360;28;20830;-51
2023/04/18 06:21:09;;;;;;;15.60;10.73;;;6.50;50.20;;;;;;5046602;28;20526;-50
2023/04/18 06:23:37;;;;;;;14.63;11.40;;;6.60;48.00;;;;;;5044599;28;20464;-50
2023/04/18 06:26:04;;;;;;;13.03;9.50;;;6.70;45.70;;;;;;5052003;28;21166;-50
2023/04/18 06:28:30;;;;;;;12.47;10.80;;;6.70;53.30;;;;;;5046620;28;20567;-50
2023/04/18 06:30:57;;;;;;;13.27;8.90;;;6.80;56.00;;;;;;5051223;28;20519;-50
2023/04/18 06:33:24;;;;;;;17.53;9.80;;;6.90;62.20;;;;;;5051323;28;20499;-50
2023/04/18 06:35:51;;;;;;;12.00;9.83;;;7.00;60.50;;;;;;5053165;28;20949;-50
2023/04/18 06:38:18;;;;;;;11.90;9.40;;;7.20;62.40;;;;;;5053062;28;20485;-51
2023/04/18 06:40:45;;;;;;;12.27;9.70;;;7.20;85.00;;;;;;5054909;28;20534;-50
2023/04/18 06:43:11;;;;;;;11.60;9.80;;;7.30;78.70;;;;;;5048010;28;20493;-52
2023/04/18 06:45:38;;;;;;;11.43;9.30;;;7.40;78.90;;;;;;5053311;28;20453;-51
2023/04/18 06:48:07;;;;;;;10.13;8.67;;;7.40;81.70;;;;;;5050613;28;20489;-51
2023/04/18 06:50:34;;;;;;;11.37;9.50;;;7.40;97.10;;;;;;5051726;28;20549;-50
2023/04/18 06:53:01;;;;;;;17.90;9.93;;;7.50;78.70;;;;;;5051404;28;20522;-52
2023/04/18 06:55:27;;;;;;;12.77;9.37;;;7.50;88.70;;;;;;5052821;28;20568;-51
2023/04/18 06:57:54;;;;;;;16.03;8.90;;;7.50;84.90;;;;;;5052088;28;20489;-51
2023/04/18 07:00:21;;;;;;;13.70;9.60;;;7.60;89.80;;;;;;5048530;28;20455;-50
2023/04/18 07:02:48;;;;;;;12.70;9.70;;;7.70;87.00;;;;;;5058859;28;20468;-50
2023/04/18 07:05:15;;;;;;;8.83;8.03;;;7.70;97.90;;;;;;5048637;28;20474;-50
2023/04/18 07:07:42;;;;;;;11.77;8.67;;;7.70;99.90;;;;;;5049671;28;20537;-51
2023/04/18 07:10:10;;;;;;;10.97;8.70;;;7.90;99.90;;;;;;5050050;28;20461;-50
2023/04/18 07:12:37;;;;;;;11.40;8.53;;;8.30;99.90;;;;;;5051435;28;20880;-51
2023/04/18 07:15:04;;;;;;;9.63;8.60;;;8.50;99.90;;;;;;5055287;28;20449;-51
2023/04/18 07:17:31;;;;;;;12.50;9.80;;;8.40;99.90;;;;;;5050252;28;20507;-50
2023/04/18 07:19:58;;;;;;;11.40;8.60;;;8.60;99.90;;;;;;5048155;28;20520;-55
2023/04/18 07:22:25;;;;;;;13.10;8.43;;;8.80;99.90;;;;;;5050629;28;20498;-58
2023/04/18 07:24:52;;;;;;;15.00;9.23;;;9.00;99.90;;;;;;5050145;28;20823;-50
2023/04/18 07:27:19;;;;;;;9.10;8.07;;;9.10;99.90;;;;;;5045401;28;20522;-49
2023/04/18 07:29:45;;;;;;;9.53;8.60;;;9.20;99.90;;;;;;5049935;28;20500;-50
2023/04/18 07:32:12;;;;;;;11.17;8.23;;;9.10;99.90;;;;;;5049417;28;20492;-50
2023/04/18 07:34:39;;;;;;;12.60;9.30;;;9.00;99.90;;;;;;5049566;28;20497;-50
2023/04/18 07:37:05;;;;;;;15.13;8.37;;;9.30;99.90;;;;;;5050739;28;20895;-50
2023/04/18 07:39:34;;;;;;;11.70;8.30;;;9.70;99.90;;;;;;5049535;28;20871;-50
2023/04/18 07:42:03;;;;;;;14.90;8.10;;;9.90;99.90;;;;;;5047222;28;20518;-51
2023/04/18 07:44:29;;;;;;;10.10;7.90;;;10.20;99.90;;;;;;5054449;28;20518;-50
2023/04/18 07:46:56;;;;;;;11.40;8.10;;;10.20;99.90;;;;;;5046106;28;20512;-50
2023/04/18 07:49:23;;;;;;;10.50;8.33;;;10.00;99.90;;;;;;5049272;28;20548;-50
2023/04/18 07:51:49;;;;;;;11.17;6.90;;;10.30;99.90;;;;;;5046282;28;20499;-51
2023/04/18 07:54:16;;;;;;;15.03;9.40;;;10.30;99.90;;;;;;5040336;28;20554;-51
2023/04/18 07:56:42;;;;;;;8.93;8.03;;;10.20;26.00;;;;;;5044128;28;20542;-49
2023/04/18 07:59:11;;;;;;;12.50;8.53;;;10.60;99.90;;;;;;5042314;28;21017;-49
2023/04/18 08:01:37;;;;;;;11.27;7.90;;;11.00;40.80;;;;;;5048021;28;20955;-48
2023/04/18 08:04:04;;;;;;;9.10;8.20;;;11.30;62.10;;;;;;5048926;28;21299;-49
2023/04/18 08:06:31;;;;;;;10.13;8.27;;;10.70;81.40;;;;;;5047170;28;20540;-49
2023/04/18 08:09:02;;;;;;;9.63;7.43;;;11.00;67.40;;;;;;5046020;28;20469;-49
2023/04/18 08:11:29;;;;;;;13.20;7.97;;;10.80;32.90;;;;;;5046335;28;20476;-48
2023/04/18 08:13:56;;;;;;;13.47;8.57;;;10.60;31.30;;;;;;5044128;28;20495;-48
2023/04/18 08:16:24;;;;;;;8.87;8.07;;;10.50;99.90;;;;;;5042332;28;20820;-49
2023/04/18 08:18:51;;;;;;;10.43;8.13;;;10.40;75.30;;;;;;5039065;28;20563;-49
2023/04/18 08:21:18;;;;;;;10.13;8.70;;;10.50;24.60;;;;;;5045144;28;20484;-49
2023/04/18 08:23:45;;;;;;;10.13;8.40;;;10.60;79.60;;;;;;5047560;28;20476;-49
2023/04/18 08:26:11;;;;;;;9.27;8.37;;;10.50;32.70;;;;;;5044737;28;20513;-49
2023/04/18 08:28:38;;;;;;;9.27;8.27;;;10.50;37.90;;;;;;5046549;28;20511;-50
2023/04/18 08:31:05;;;;;;;9.93;7.60;;;10.40;20.90;;;;;;5050102;28;20810;-49
2023/04/18 08:33:33;;;;;;;13.23;8.33;;;10.40;38.60;;;;;;5050997;28;21284;-49
2023/04/18 08:35:59;;;;;;;10.40;7.83;;;10.40;35.50;;;;;;5051743;28;20568;-49
2023/04/18 08:38:26;;;;;;;11.70;7.67;;;10.40;99.90;;;;;;5050844;28;20458;-49
2023/04/18 08:40:52;;;;;;;15.13;8.47;;;10.30;23.50;;;;;;5051423;28;21216;-50
2023/04/18 08:43:19;;;;;;;11.00;8.20;;;10.20;31.30;;;;;;5051246;28;21032;-49
2023/04/18 08:45:47;;;;;;;13.00;8.60;;;10.10;23.60;;;;;;5031634;28;20857;-49
2023/04/18 08:48:15;;;;;;;10.80;8.40;;;10.20;99.90;;;;;;5034356;28;20458;-49
2023/04/18 08:50:43;;;;;;;10.07;8.73;;;10.20;78.40;;;;;;5050719;28;20488;-49
2023/04/18 08:53:10;;;;;;;8.73;7.70;;;10.10;96.00;;;;;;5049725;28;20515;-48
2023/04/18 08:55:37;;;;;;;10.40;8.33;;;10.10;26.60;;;;;;5049480;28;20506;-49
2023/04/18 08:58:05;;;;;;;14.43;8.50;;;10.10;99.90;;;;;;5049723;28;20477;-49
2023/04/18 09:00:32;;;;;;;13.50;7.97;;;10.10;94.60;;;;;;5052556;28;20493;-49
2023/04/18 09:03:01;;;;;;;9.43;7.93;;;10.00;99.90;;;;;;5058132;28;21065;-49
2023/04/18 09:05:28;;;;;;;8.73;7.83;;;9.90;99.90;;;;;;5050078;28;20831;-49
2023/04/18 09:07:57;;;;;;;12.60;8.27;;;10.00;99.90;;;;;;5051208;28;20483;-49
2023/04/18 09:10:29;;;;;;;10.93;8.67;;;10.00;99.90;;;;;;5050621;28;20831;-48
2023/04/18 09:12:57;;;;;;;10.33;8.23;;;9.90;99.90;;;;;;5055282;28;20472;-48
2023/04/18 09:15:25;;;;;;;10.07;8.33;;;9.90;92.00;;;;;;5048453;28;20547;-49
2023/04/18 09:17:53;;;;;;;13.60;9.47;;;9.90;99.90;;;;;;5047425;28;20589;-49
2023/04/18 09:20:33;;;;;;;16.03;7.97;;;9.90;93.10;;;;;;5051174;28;20489;-49
2023/04/18 09:23:03;;;;;;;13.37;8.60;;;9.90;99.90;;;;;;5044313;28;20862;-50
2023/04/18 09:25:33;;;;;;;8.63;7.60;;;10.20;97.20;;;;;;5045255;28;20446;-50
2023/04/18 09:28:01;;;;;;;10.30;8.53;;;10.20;25.20;;;;;;5048936;28;21144;-49
2023/04/18 09:30:36;;;;;;;10.80;8.70;;;10.40;99.90;;;;;;5040552;28;20456;-48
2023/04/18 09:33:04;;;;;;;11.00;8.40;;;10.50;30.70;;;;;;5049932;28;20552;-49
2023/04/18 09:35:31;;;;;;;10.73;8.37;;;10.30;46.20;;;;;;5047865;28;20472;-49
2023/04/18 09:37:57;;;;;;;11.77;8.67;;;10.70;58.30;;;;;;5052981;28;20565;-49
2023/04/18 09:40:25;;;;;;;9.40;8.40;;;10.80;60.60;;;;;;5053026;28;20588;-49
2023/04/18 09:42:54;;;;;;;10.60;8.13;;;11.00;56.00;;;;;;5052897;28;20510;-49
2023/04/18 09:45:21;;;;;;;9.80;8.50;;;11.00;83.20;;;;;;5052725;28;20586;-49
2023/04/18 09:47:48;;;;;;;15.57;8.83;;;11.20;67.70;;;;;;5045649;28;20483;-49
2023/04/18 09:50:17;;;;;;;9.77;8.50;;;11.30;88.60;;;;;;5051581;28;20538;-49
2023/04/18 09:52:44;;;;;;;9.30;8.40;;;11.20;85.80;;;;;;5050774;28;20487;-49
2023/04/18 09:55:13;;;;;;;10.70;8.07;;;11.30;72.80;;;;;;5051363;28;20974;-48
2023/04/18 09:57:43;;;;;;;9.67;8.17;;;11.40;92.40;;;;;;5052502;28;20469;-49
2023/04/18 10:00:16;;;;;;;8.03;7.30;;;11.50;99.90;;;;;;5052354;28;20488;-49
2023/04/18 10:02:48;;;;;;;10.23;8.90;;;11.70;99.90;;;;;;5052324;28;20543;-49
2023/04/18 10:05:16;;;;;;;12.23;9.07;;;12.00;99.90;;;;;;5051233;28;20598;-49
2023/04/18 10:07:45;;;;;;;9.70;8.70;;;12.00;99.90;;;;;;5045517;28;20567;-48
2023/04/18 10:10:12;;;;;;;13.13;8.73;;;12.20;99.90;;;;;;5049824;28;20460;-49
2023/04/18 10:12:41;;;;;;;10.10;8.40;;;12.40;99.90;;;;;;5059796;28;20863;-49
2023/04/18 10:15:09;;;;;;;8.97;7.93;;;12.70;99.90;;;;;;5051158;28;20569;-49
2023/04/18 10:17:42;;;;;;;9.80;8.80;;;12.80;99.90;;;;;;5054418;28;20491;-50
2023/04/18 10:20:15;;;;;;;10.33;9.33;;;12.70;99.90;;;;;;5050401;28;20495;-48
2023/04/18 10:22:41;;;;;;;13.27;9.17;;;12.70;99.90;;;;;;5049712;28;20483;-48
2023/04/18 10:25:08;;;;;;;10.60;9.00;;;12.70;99.90;;;;;;5052671;28;20501;-48
2023/04/18 10:27:57;;;;;;;12.13;9.93;;;12.50;99.90;;;;;;5051936;28;20551;-49
2023/04/18 10:30:52;;;;;;;12.40;10.10;;;12.80;99.90;;;;;;5060506;28;20471;-49
2023/04/18 10:33:31;;;;;;;10.47;9.00;;;12.80;99.90;;;;;;5048461;28;20446;-49
2023/04/18 10:36:05;;;;;;;14.63;9.03;;;12.60;99.90;;;;;;5050506;28;20473;-49
2023/04/18 10:38:32;;;;;;;9.50;8.60;;;12.70;99.90;;;;;;5051594;28;20943;-49
2023/04/18 10:41:16;;;;;;;11.50;9.50;;;12.60;99.90;;;;;;5054009;28;20485;-47
2023/04/18 10:44:14;;;;;;;9.63;8.63;;;12.50;99.90;;;;;;5054880;28;20469;-48
2023/04/18 10:46:41;;;;;;;10.20;8.70;;;12.80;99.90;;;;;;5051630;28;20489;-49
2023/04/18 10:49:15;;;;;;;11.00;9.33;;;12.70;99.90;;;;;;5056177;28;20958;-48
2023/04/18 10:51:43;;;;;;;10.40;8.83;;;12.70;99.90;;;;;;5052355;28;20462;-49
2023/04/18 10:54:12;;;;;;;11.07;8.70;;;13.30;99.90;;;;;;5069425;28;20460;-49
2023/04/18 10:56:39;;;;;;;18.80;8.83;;;13.30;99.90;;;;;;5057014;28;20473;-49
2023/04/18 10:59:07;;;;;;;9.07;7.50;;;13.50;99.90;;;;;;5051970;28;20455;-49
2023/04/18 11:01:37;;;;;;;11.97;8.40;;;13.40;99.90;;;;;;5055944;28;20512;-49
2023/04/18 11:04:12;;;;;;;10.33;8.17;;;13.30;99.90;;;;;;5053352;28;20461;-48
2023/04/18 11:06:47;;;;;;;10.77;8.07;;;13.00;99.90;;;;;;5048011;28;20480;-50
2023/04/18 11:09:14;;;;;;;10.00;9.10;;;13.00;99.90;;;;;;5052565;28;20499;-48
2023/04/18 11:11:42;;;;;;;11.20;7.37;;;12.90;99.90;;;;;;5050943;28;20475;-49
2023/04/18 11:14:08;;;;;;;9.53;8.10;;;13.00;99.90;;;;;;5048064;28;20469;-48
2023/04/18 11:16:37;;;;;;;11.50;9.13;;;13.00;99.90;;;;;;5058576;28;21062;-49
2023/04/18 11:19:20;;;;;;;10.30;8.43;;;12.90;99.90;;;;;;5066518;28;20491;-51
2023/04/18 11:21:47;;;;;;;10.03;8.50;;;13.00;90.00;;;;;;5063161;28;20457;-48
2023/04/18 11:24:22;;;;;;;11.23;9.07;;;12.80;99.90;;;;;;5051734;28;20480;-49
2023/04/18 11:26:48;;;;;;;9.97;8.97;;;13.10;99.40;;;;;;5055578;28;20483;-48
2023/04/18 11:29:17;;;;;;;8.93;8.13;;;13.10;99.90;;;;;;5050423;28;20488;-49
2023/04/18 11:31:51;;;;;;;10.67;8.70;;;13.30;99.90;;;;;;5050382;28;20469;-48
2023/04/18 11:34:18;;;;;;;9.20;7.47;;;13.20;99.90;;;;;;5062872;28;20969;-50
2023/04/18 11:36:48;;;;;;;10.07;8.40;;;13.10;99.90;;;;;;5051329;28;20979;-51
2023/04/18 11:39:15;;;;;;;9.23;8.10;;;13.40;99.90;;;;;;5046110;28;20491;-50
2023/04/18 11:41:48;;;;;;;9.87;8.97;;;13.40;99.90;;;;;;5050336;28;20862;-51
2023/04/18 11:44:15;;;;;;;13.67;8.63;;;13.30;99.90;;;;;;5047393;28;20518;-49
2023/04/18 11:46:43;;;;;;;10.53;8.50;;;13.40;99.90;;;;;;5048508;28;21003;-50
2023/04/18 11:49:25;;;;;;;13.17;9.87;;;13.40;99.90;;;;;;5051793;28;20456;-50
2023/04/18 11:51:52;;;;;;;9.73;8.73;;;13.10;99.90;;;;;;5052405;28;20438;-50
2023/04/18 11:54:39;;;;;;;10.77;9.00;;;13.30;99.90;;;;;;5050591;28;20493;-50
2023/04/18 11:57:06;;;;;;;9.97;8.97;;;13.30;99.90;;;;;;5055392;28;20493;-49
2023/04/18 11:59:33;;;;;;;12.47;9.13;;;13.30;99.90;;;;;;5047552;28;20476;-51
2023/04/18 12:02:01;;;;;;;10.07;8.70;;;13.30;99.90;;;;;;5046510;28;20462;-51
2023/04/18 12:04:29;;;;;;;10.37;8.67;;;13.40;99.90;;;;;;5047749;28;20488;-50
2023/04/18 12:06:56;;;;;;;10.17;8.20;;;13.50;99.90;;;;;;5046718;28;20996;-50
2023/04/18 12:09:24;;;;;;;14.60;9.60;;;13.60;99.90;;;;;;5046993;28;20447;-50
2023/04/18 12:11:58;;;;;;;12.13;9.07;;;13.50;99.90;;;;;;5045330;28;20478;-50
2023/04/18 12:14:25;;;;;;;11.60;8.83;;;13.60;99.90;;;;;;5055425;28;20461;-50
2023/04/18 12:16:52;;;;;;;11.40;8.57;;;13.50;99.90;;;;;;5049200;28;20528;-51
2023/04/18 12:19:20;;;;;;;10.27;9.27;;;13.50;99.90;;;;;;5061808;28;20460;-50
2023/04/18 12:22:00;;;;;;;10.20;9.20;;;13.60;99.90;;;;;;5063191;28;20482;-55
2023/04/18 12:24:27;;;;;;;13.70;10.00;;;13.70;99.90;;;;;;5061904;28;20467;-50
2023/04/18 12:26:54;;;;;;;14.13;9.63;;;13.70;99.90;;;;;;5061650;28;20570;-50
2023/04/18 12:29:21;;;;;;;11.00;8.67;;;13.80;99.90;;;;;;5049780;28;20500;-51
2023/04/18 12:31:47;;;;;;;11.77;8.60;;;13.90;99.90;;;;;;5050627;28;20973;-50
2023/04/18 12:34:14;;;;;;;14.50;9.17;;;13.90;99.90;;;;;;5048494;28;20524;-50
2023/04/18 12:36:40;;;;;;;10.03;8.90;;;14.00;99.90;;;;;;5050520;28;20472;-51
2023/04/18 12:39:09;;;;;;;11.23;7.97;;;14.10;99.90;;;;;;5049958;28;20468;-50
2023/04/18 12:41:35;;;;;;;10.73;9.27;;;14.10;99.90;;;;;;5055286;28;20537;-50